METAR Data
IDs: Format: Raw Decoded Include TAF

Data at: 0636 UTC 03 Aug 2021

KOVE 030553Z AUTO 00000KT 10SM CLR 27/08 A2997 RMK AO2 SLP148 T02670083 10361 20261 53002
KOVE 030453Z AUTO 00000KT 10SM CLR 28/09 A2997 RMK AO2 SLP147 T02830094
KOVE 030353Z AUTO 00000KT 10SM CLR 31/11 A2996 RMK AO2 SLP145 T03060106
KOVE 030253Z AUTO 20004KT 10SM CLR 33/11 A2996 RMK AO2 SLP146 T03280106 55008
KOVE 030153Z AUTO 19005KT 10SM CLR 34/07 A2996 RMK AO2 SLP145 T03440067
KOVE 030053Z AUTO VRB03KT 10SM CLR 36/06 A2997 RMK AO2 SLP147 T03560056
KOVE 022353Z AUTO 20006KT 10SM CLR 36/07 A2999 RMK AO2 SLP154 T03560067 10361 20267 56023
KOVE 022253Z AUTO VRB04KT 10SM CLR 35/10 A3000 RMK AO2 SLP160 T03500100
KOVE 022153Z AUTO VRB03KT 10SM CLR 34/08 A3003 RMK AO2 SLP168 T03390083
KOVE 022053Z AUTO VRB03KT 10SM CLR 32/09 A3005 RMK AO2 SLP177 T03220089 58011
KOVE 021953Z AUTO VRB04KT 10SM CLR 31/09 A3007 RMK AO2 SLP183 T03110094
KOVE 021853Z AUTO 15007KT 10SM CLR 29/07 A3008 RMK AO2 SLP186 T02940072
KOVE 021753Z AUTO 18008KT 10SM CLR 27/09 A3009 RMK AO2 SLP188 T02670094 10272 20189 50002
KOVE 021653Z AUTO 20004KT 10SM CLR 24/11 A3009 RMK AO2 SLP189 T02440111
KOVE 021553Z AUTO VRB03KT 10SM CLR 22/11 A3009 RMK AO2 SLP188 T02220106
KOVE 021453Z AUTO 15007KT 10SM CLR 21/10 A3008 RMK AO2 SLP186 T02110100 51017
KOVE 021353Z AUTO 13006KT 10SM CLR 19/09 A3007 RMK AO2 SLP183 T01940094
KOVE 021253Z AUTO 13004KT 10SM CLR 19/09 A3005 RMK AO2 SLP175 T01940089
KOVE 021153Z AUTO 15007KT 10SM CLR 20/09 A3003 RMK AO2 SLP169 T02000089 10289 20200 53007
KOVE 021053Z AUTO 14008KT 10SM CLR 21/09 A3002 RMK AO2 SLP164 T02060089
KOVE 020953Z AUTO 14008KT 10SM CLR 22/10 A3001 RMK AO2 SLP162 T02170100
KOVE 020853Z AUTO 14010KT 10SM CLR 23/11 A3001 RMK AO2 SLP162 T02280106 53009
KOVE 020753Z AUTO 17007KT 10SM CLR 24/11 A3000 RMK AO2 SLP159 T02440106 403830211
KOVE 020653Z AUTO 17008KT 10SM CLR 26/09 A2999 RMK AO2 SLP155 T02610094
KOVE 020553Z AUTO 16010KT 10SM CLR 29/09 A2998 RMK AO2 SLP153 T02890094 10383 20289 51021
KOVE 020453Z AUTO 15011KT 10SM CLR 31/11 A2997 RMK AO2 SLP148 T03060106
KOVE 020353Z AUTO 15009KT 10SM CLR 32/14 A2994 RMK AO2 SLP137 T03220139
KOVE 020253Z AUTO 17007KT 10SM CLR 35/14 A2992 RMK AO2 SLP131 T03500139 55003
KOVE 020153Z AUTO 18006KT 10SM CLR 37/12 A2990 RMK AO2 SLP126 T03720117
KOVE 020053Z AUTO 26003KT 10SM CLR 38/11 A2992 RMK AO2 SLP132 T03780111
KOVE 012353Z AUTO 24004KT 10SM CLR 38/11 A2993 RMK AO2 SLP135 T03830106 10383 20294 56022
KOVE 012253Z AUTO 00000KT 10SM CLR 38/10 A2995 RMK AO2 SLP141 T03780100
KOVE 012153Z AUTO 00000KT 10SM CLR 36/12 A2996 RMK AO2 SLP146 T03610117
KOVE 012053Z AUTO VRB06KT 10SM CLR 34/12 A3000 RMK AO2 SLP157 T03440122 56009
KOVE 011953Z AUTO 24004KT 10SM CLR 33/14 A3000 RMK AO2 SLP159 T03280139
KOVE 011853Z AUTO VRB03KT 10SM CLR 31/13 A3001 RMK AO2 SLP162 T03110128